Terminal Aerodrome Forecast
Issued by NWS Cleveland, OH

Home | Current Version | Previous Version | Graphics & Text | Print | Product List | Glossary On
Versions: 1 2 3 4 5 6 7 8 9 10 11 12 13 14 15 16 17 18 19 20 21 22 23 24 25 26 27 28 29 30 31 32 33
000
FTUS41 KCLE 182147 AAB
TAFCLE
TAF AMD
KCLE 182147Z 1822/1924 24008KT 2SM -DZ BR OVC007
      TEMPO 1822/1902 3/4SM -DZ BR
     FM190700 22006KT 4SM BR OVC007
     FM191400 22006KT P6SM OVC010
     FM191900 17005KT P6SM SCT012=

USA.gov is the U.S. government's official web portal to all federal, state and local government web resources and services.